Terminal Aerodrome Forecast
Issued by NWS

Home | Current Version | Previous Version | Text Only | Print | Product List | Glossary Off
Versions: 1 2 3 4 5 6 7 8 9 10 11 12 13 14 15

000
FTUS43 KBIS 150500
TAFMOT
TAF
KMOT 150527Z 1506/1606 13019G26KT P6SM BKN250 WS014/17050KT
     FM151600 18022G30KT P6SM BKN210
     FM160000 22013KT P6SM SCT060
     FM160300 28014G22KT P6SM BKN060=

USA.gov is the U.S. government's official web portal to all federal, state and local government web resources and services.